sensor_id;sensor_type;location;lat;lon;timestamp;temperature;humidity
78696;SHT31;68030;51.980;5.646;2024-03-06T00:00:07;9.9;68.7
78696;SHT31;68030;51.980;5.646;2024-03-06T00:02:36;9.8;68.8
78696;SHT31;68030;51.980;5.646;2024-03-06T00:05:06;9.8;68.9
78696;SHT31;68030;51.980;5.646;2024-03-06T00:07:36;9.7;69.0
78696;SHT31;68030;51.980;5.646;2024-03-06T00:10:05;9.7;68.9
78696;SHT31;68030;51.980;5.646;2024-03-06T00:12:34;9.7;69.1
78696;SHT31;68030;51.980;5.646;2024-03-06T00:15:03;9.7;69.1
78696;SHT31;68030;51.980;5.646;2024-03-06T00:17:32;9.6;69.0
78696;SHT31;68030;51.980;5.646;2024-03-06T00:20:01;9.6;68.9
78696;SHT31;68030;51.980;5.646;2024-03-06T00:22:31;9.6;68.9
78696;SHT31;68030;51.980;5.646;2024-03-06T00:25:01;9.6;68.7
78696;SHT31;68030;51.980;5.646;2024-03-06T00:27:29;9.6;68.0
78696;SHT31;68030;51.980;5.646;2024-03-06T00:29:57;9.5;67.6
78696;SHT31;68030;51.980;5.646;2024-03-06T00:32:26;9.5;67.6
78696;SHT31;68030;51.980;5.646;2024-03-06T00:34:55;9.5;67.5
78696;SHT31;68030;51.980;5.646;2024-03-06T00:37:23;9.5;67.4
78696;SHT31;68030;51.980;5.646;2024-03-06T00:39:51;9.4;67.1
78696;SHT31;68030;51.980;5.646;2024-03-06T00:42:21;9.4;66.7
78696;SHT31;68030;51.980;5.646;2024-03-06T00:44:49;9.4;66.5
78696;SHT31;68030;51.980;5.646;2024-03-06T00:47:18;9.3;66.5
78696;SHT31;68030;51.980;5.646;2024-03-06T00:49:48;9.3;66.5
78696;SHT31;68030;51.980;5.646;2024-03-06T00:52:16;9.2;66.4
78696;SHT31;68030;51.980;5.646;2024-03-06T00:54:44;9.2;66.3
78696;SHT31;68030;51.980;5.646;2024-03-06T00:57:13;9.2;66.2
78696;SHT31;68030;51.980;5.646;2024-03-06T00:59:41;9.1;66.2
78696;SHT31;68030;51.980;5.646;2024-03-06T01:02:10;9.1;66.2
78696;SHT31;68030;51.980;5.646;2024-03-06T01:04:38;9.0;66.3
78696;SHT31;68030;51.980;5.646;2024-03-06T01:07:07;9.0;66.6
78696;SHT31;68030;51.980;5.646;2024-03-06T01:09:35;9.0;66.7
78696;SHT31;68030;51.980;5.646;2024-03-06T01:12:03;8.9;66.9
78696;SHT31;68030;51.980;5.646;2024-03-06T01:14:32;8.9;67.2
78696;SHT31;68030;51.980;5.646;2024-03-06T01:17:00;8.9;67.3
78696;SHT31;68030;51.980;5.646;2024-03-06T01:19:29;8.9;67.4
78696;SHT31;68030;51.980;5.646;2024-03-06T01:21:57;8.8;67.6
78696;SHT31;68030;51.980;5.646;2024-03-06T01:24:26;8.8;67.7
78696;SHT31;68030;51.980;5.646;2024-03-06T01:26:54;8.8;67.7
78696;SHT31;68030;51.980;5.646;2024-03-06T01:29:23;8.8;67.8
78696;SHT31;68030;51.980;5.646;2024-03-06T01:31:51;8.7;68.1
78696;SHT31;68030;51.980;5.646;2024-03-06T01:34:20;8.7;68.0
78696;SHT31;68030;51.980;5.646;2024-03-06T01:36:50;8.7;68.0
78696;SHT31;68030;51.980;5.646;2024-03-06T01:39:19;8.7;68.0
78696;SHT31;68030;51.980;5.646;2024-03-06T01:41:49;8.6;67.9
78696;SHT31;68030;51.980;5.646;2024-03-06T01:44:18;8.6;67.9
78696;SHT31;68030;51.980;5.646;2024-03-06T01:46:47;8.6;68.0
78696;SHT31;68030;51.980;5.646;2024-03-06T01:49:16;8.6;68.0
78696;SHT31;68030;51.980;5.646;2024-03-06T01:51:50;8.6;68.1
78696;SHT31;68030;51.980;5.646;2024-03-06T01:54:20;8.5;68.1
78696;SHT31;68030;51.980;5.646;2024-03-06T01:56:50;8.5;68.1
78696;SHT31;68030;51.980;5.646;2024-03-06T01:59:23;8.5;68.1
78696;SHT31;68030;51.980;5.646;2024-03-06T02:01:54;8.5;67.9
78696;SHT31;68030;51.980;5.646;2024-03-06T02:04:26;8.4;67.3
78696;SHT31;68030;51.980;5.646;2024-03-06T02:06:55;8.4;66.1
78696;SHT31;68030;51.980;5.646;2024-03-06T02:09:25;8.4;65.6
78696;SHT31;68030;51.980;5.646;2024-03-06T02:11:54;8.3;65.4
78696;SHT31;68030;51.980;5.646;2024-03-06T02:14:25;8.3;65.1
78696;SHT31;68030;51.980;5.646;2024-03-06T02:16:53;8.2;64.4
78696;SHT31;68030;51.980;5.646;2024-03-06T02:19:22;8.1;64.7
78696;SHT31;68030;51.980;5.646;2024-03-06T02:21:53;8.1;65.3
78696;SHT31;68030;51.980;5.646;2024-03-06T02:24:21;8.0;65.8
78696;SHT31;68030;51.980;5.646;2024-03-06T02:26:49;7.9;66.4
78696;SHT31;68030;51.980;5.646;2024-03-06T02:29:18;7.9;67.0
78696;SHT31;68030;51.980;5.646;2024-03-06T02:31:48;7.8;67.5
78696;SHT31;68030;51.980;5.646;2024-03-06T02:34:17;7.8;67.9
78696;SHT31;68030;51.980;5.646;2024-03-06T02:36:45;7.8;68.2
78696;SHT31;68030;51.980;5.646;2024-03-06T02:39:13;7.8;68.1
78696;SHT31;68030;51.980;5.646;2024-03-06T02:41:42;7.7;67.4
78696;SHT31;68030;51.980;5.646;2024-03-06T02:44:11;7.7;67.2
78696;SHT31;68030;51.980;5.646;2024-03-06T02:46:39;7.7;67.2
78696;SHT31;68030;51.980;5.646;2024-03-06T02:49:08;7.7;67.4
78696;SHT31;68030;51.980;5.646;2024-03-06T02:51:36;7.6;67.5
78696;SHT31;68030;51.980;5.646;2024-03-06T02:54:05;7.6;67.6
78696;SHT31;68030;51.980;5.646;2024-03-06T02:56:33;7.6;67.6
78696;SHT31;68030;51.980;5.646;2024-03-06T02:59:02;7.5;67.6
78696;SHT31;68030;51.980;5.646;2024-03-06T03:01:30;7.5;67.3
78696;SHT31;68030;51.980;5.646;2024-03-06T03:03:59;7.5;66.3
78696;SHT31;68030;51.980;5.646;2024-03-06T03:06:28;7.4;65.8
78696;SHT31;68030;51.980;5.646;2024-03-06T03:08:57;7.4;66.1
78696;SHT31;68030;51.980;5.646;2024-03-06T03:11:25;7.4;66.3
78696;SHT31;68030;51.980;5.646;2024-03-06T03:13:54;7.3;66.6
78696;SHT31;68030;51.980;5.646;2024-03-06T03:16:23;7.3;67.1
78696;SHT31;68030;51.980;5.646;2024-03-06T03:18:51;7.2;67.2
78696;SHT31;68030;51.980;5.646;2024-03-06T03:21:20;7.2;67.0
78696;SHT31;68030;51.980;5.646;2024-03-06T03:23:50;7.2;67.1
78696;SHT31;68030;51.980;5.646;2024-03-06T03:26:19;7.1;67.0
78696;SHT31;68030;51.980;5.646;2024-03-06T03:28:49;7.1;67.2
78696;SHT31;68030;51.980;5.646;2024-03-06T03:31:17;7.1;67.8
78696;SHT31;68030;51.980;5.646;2024-03-06T03:33:47;7.0;68.3
78696;SHT31;68030;51.980;5.646;2024-03-06T03:36:16;7.0;68.6
78696;SHT31;68030;51.980;5.646;2024-03-06T03:38:44;7.0;68.9
78696;SHT31;68030;51.980;5.646;2024-03-06T03:41:13;7.0;69.1
78696;SHT31;68030;51.980;5.646;2024-03-06T03:43:43;7.0;68.8
78696;SHT31;68030;51.980;5.646;2024-03-06T03:46:11;7.0;67.3
78696;SHT31;68030;51.980;5.646;2024-03-06T03:48:40;6.9;65.7
78696;SHT31;68030;51.980;5.646;2024-03-06T03:51:09;6.9;65.3
78696;SHT31;68030;51.980;5.646;2024-03-06T03:53:38;6.9;64.7
78696;SHT31;68030;51.980;5.646;2024-03-06T03:56:07;6.8;64.7
78696;SHT31;68030;51.980;5.646;2024-03-06T03:58:36;6.8;64.5
78696;SHT31;68030;51.980;5.646;2024-03-06T04:01:06;6.7;64.6
78696;SHT31;68030;51.980;5.646;2024-03-06T04:03:34;6.6;64.8
78696;SHT31;68030;51.980;5.646;2024-03-06T04:06:03;6.6;65.2
78696;SHT31;68030;51.980;5.646;2024-03-06T04:08:34;6.5;65.7
78696;SHT31;68030;51.980;5.646;2024-03-06T04:11:04;6.4;66.2
78696;SHT31;68030;51.980;5.646;2024-03-06T04:13:35;6.4;66.5
78696;SHT31;68030;51.980;5.646;2024-03-06T04:16:05;6.4;66.9
78696;SHT31;68030;51.980;5.646;2024-03-06T04:18:34;6.3;67.1
78696;SHT31;68030;51.980;5.646;2024-03-06T04:21:04;6.3;67.4
78696;SHT31;68030;51.980;5.646;2024-03-06T04:23:33;6.3;67.6
78696;SHT31;68030;51.980;5.646;2024-03-06T04:26:02;6.2;67.9
78696;SHT31;68030;51.980;5.646;2024-03-06T04:28:34;6.2;68.1
78696;SHT31;68030;51.980;5.646;2024-03-06T04:31:02;6.2;68.5
78696;SHT31;68030;51.980;5.646;2024-03-06T04:33:31;6.2;68.5
78696;SHT31;68030;51.980;5.646;2024-03-06T04:36:02;6.2;68.4
78696;SHT31;68030;51.980;5.646;2024-03-06T04:38:34;6.2;68.6
78696;SHT31;68030;51.980;5.646;2024-03-06T04:41:05;6.2;68.8
78696;SHT31;68030;51.980;5.646;2024-03-06T04:43:33;6.2;69.1
78696;SHT31;68030;51.980;5.646;2024-03-06T04:46:03;6.2;69.2
78696;SHT31;68030;51.980;5.646;2024-03-06T04:48:32;6.2;69.4
78696;SHT31;68030;51.980;5.646;2024-03-06T04:51:00;6.2;69.3
78696;SHT31;68030;51.980;5.646;2024-03-06T04:53:28;6.2;69.2
78696;SHT31;68030;51.980;5.646;2024-03-06T04:55:57;6.2;69.2
78696;SHT31;68030;51.980;5.646;2024-03-06T04:58:26;6.2;69.2
78696;SHT31;68030;51.980;5.646;2024-03-06T05:00:54;6.2;69.2
78696;SHT31;68030;51.980;5.646;2024-03-06T05:03:24;6.2;69.3
78696;SHT31;68030;51.980;5.646;2024-03-06T05:05:55;6.2;69.3
78696;SHT31;68030;51.980;5.646;2024-03-06T05:08:24;6.2;69.3
78696;SHT31;68030;51.980;5.646;2024-03-06T05:10:52;6.2;69.1
78696;SHT31;68030;51.980;5.646;2024-03-06T05:13:21;6.2;69.1
78696;SHT31;68030;51.980;5.646;2024-03-06T05:15:50;6.2;69.2
78696;SHT31;68030;51.980;5.646;2024-03-06T05:18:18;6.2;69.3
78696;SHT31;68030;51.980;5.646;2024-03-06T05:20:47;6.2;69.4
78696;SHT31;68030;51.980;5.646;2024-03-06T05:23:15;6.2;68.7
78696;SHT31;68030;51.980;5.646;2024-03-06T05:25:44;6.2;67.2
78696;SHT31;68030;51.980;5.646;2024-03-06T05:28:12;6.2;66.0
78696;SHT31;68030;51.980;5.646;2024-03-06T05:30:41;6.2;65.7
78696;SHT31;68030;51.980;5.646;2024-03-06T05:33:09;6.2;65.7
78696;SHT31;68030;51.980;5.646;2024-03-06T05:35:38;6.1;65.7
78696;SHT31;68030;51.980;5.646;2024-03-06T05:38:07;6.1;66.0
78696;SHT31;68030;51.980;5.646;2024-03-06T05:40:35;6.0;66.3
78696;SHT31;68030;51.980;5.646;2024-03-06T05:43:06;6.0;66.7
78696;SHT31;68030;51.980;5.646;2024-03-06T05:45:37;6.0;67.0
78696;SHT31;68030;51.980;5.646;2024-03-06T05:48:06;5.9;67.4
78696;SHT31;68030;51.980;5.646;2024-03-06T05:50:34;5.9;67.5
78696;SHT31;68030;51.980;5.646;2024-03-06T05:53:03;5.9;67.8
78696;SHT31;68030;51.980;5.646;2024-03-06T05:55:32;5.9;68.2
78696;SHT31;68030;51.980;5.646;2024-03-06T05:58:01;5.9;68.3
78696;SHT31;68030;51.980;5.646;2024-03-06T06:00:32;5.9;68.7
78696;SHT31;68030;51.980;5.646;2024-03-06T06:03:01;5.9;69.1
78696;SHT31;68030;51.980;5.646;2024-03-06T06:05:30;5.8;69.6
78696;SHT31;68030;51.980;5.646;2024-03-06T06:08:01;5.8;70.1
78696;SHT31;68030;51.980;5.646;2024-03-06T06:10:29;5.8;70.7
78696;SHT31;68030;51.980;5.646;2024-03-06T06:13:00;5.9;71.0
78696;SHT31;68030;51.980;5.646;2024-03-06T06:15:31;5.9;70.9
78696;SHT31;68030;51.980;5.646;2024-03-06T06:17:59;5.9;70.0
78696;SHT31;68030;51.980;5.646;2024-03-06T06:20:28;5.9;69.0
78696;SHT31;68030;51.980;5.646;2024-03-06T06:22:56;5.9;68.7
78696;SHT31;68030;51.980;5.646;2024-03-06T06:25:25;5.9;68.9
78696;SHT31;68030;51.980;5.646;2024-03-06T06:27:53;5.9;69.4
78696;SHT31;68030;51.980;5.646;2024-03-06T06:30:22;6.0;70.3
78696;SHT31;68030;51.980;5.646;2024-03-06T06:32:51;6.0;72.0
78696;SHT31;68030;51.980;5.646;2024-03-06T06:35:20;6.1;73.4
78696;SHT31;68030;51.980;5.646;2024-03-06T06:37:48;6.2;75.3
78696;SHT31;68030;51.980;5.646;2024-03-06T06:40:18;6.3;75.5
78696;SHT31;68030;51.980;5.646;2024-03-06T06:42:48;6.4;73.5
78696;SHT31;68030;51.980;5.646;2024-03-06T06:45:19;6.5;73.2
78696;SHT31;68030;51.980;5.646;2024-03-06T06:47:51;6.6;72.5
78696;SHT31;68030;51.980;5.646;2024-03-06T06:50:20;6.7;72.6
78696;SHT31;68030;51.980;5.646;2024-03-06T06:52:52;6.8;72.7
78696;SHT31;68030;51.980;5.646;2024-03-06T06:55:21;6.9;72.4
78696;SHT31;68030;51.980;5.646;2024-03-06T06:57:50;7.0;70.7
78696;SHT31;68030;51.980;5.646;2024-03-06T07:00:20;7.0;68.6
78696;SHT31;68030;51.980;5.646;2024-03-06T07:02:49;7.1;67.7
78696;SHT31;68030;51.980;5.646;2024-03-06T07:05:20;7.1;67.9
78696;SHT31;68030;51.980;5.646;2024-03-06T07:07:49;7.2;68.4
78696;SHT31;68030;51.980;5.646;2024-03-06T07:10:17;7.2;69.8
78696;SHT31;68030;51.980;5.646;2024-03-06T07:12:45;7.2;71.4
78696;SHT31;68030;51.980;5.646;2024-03-06T07:15:14;7.3;72.5
78696;SHT31;68030;51.980;5.646;2024-03-06T07:17:43;7.4;73.0
78696;SHT31;68030;51.980;5.646;2024-03-06T07:20:12;7.4;73.3
78696;SHT31;68030;51.980;5.646;2024-03-06T07:22:40;7.5;73.0
78696;SHT31;68030;51.980;5.646;2024-03-06T07:25:09;7.6;73.0
78696;SHT31;68030;51.980;5.646;2024-03-06T07:27:38;7.6;72.8
78696;SHT31;68030;51.980;5.646;2024-03-06T07:30:07;7.7;72.4
78696;SHT31;68030;51.980;5.646;2024-03-06T07:32:37;7.8;72.2
78696;SHT31;68030;51.980;5.646;2024-03-06T07:35:07;7.8;71.8
78696;SHT31;68030;51.980;5.646;2024-03-06T07:37:36;7.9;71.5
78696;SHT31;68030;51.980;5.646;2024-03-06T07:40:06;8.0;71.1
78696;SHT31;68030;51.980;5.646;2024-03-06T07:42:36;8.0;70.7
78696;SHT31;68030;51.980;5.646;2024-03-06T07:45:05;8.0;70.7
78696;SHT31;68030;51.980;5.646;2024-03-06T07:47:35;8.1;70.6
78696;SHT31;68030;51.980;5.646;2024-03-06T07:50:06;8.1;70.7
78696;SHT31;68030;51.980;5.646;2024-03-06T07:52:37;8.1;70.8
78696;SHT31;68030;51.980;5.646;2024-03-06T07:55:07;8.1;71.0
78696;SHT31;68030;51.980;5.646;2024-03-06T07:57:36;8.2;70.5
78696;SHT31;68030;51.980;5.646;2024-03-06T08:00:05;8.2;70.3
78696;SHT31;68030;51.980;5.646;2024-03-06T08:02:41;8.3;70.3
78696;SHT31;68030;51.980;5.646;2024-03-06T08:05:14;8.3;70.1
78696;SHT31;68030;51.980;5.646;2024-03-06T08:07:43;8.3;70.3
78696;SHT31;68030;51.980;5.646;2024-03-06T08:10:13;8.4;70.3
78696;SHT31;68030;51.980;5.646;2024-03-06T08:12:44;8.4;69.9
78696;SHT31;68030;51.980;5.646;2024-03-06T08:15:14;8.5;70.0
78696;SHT31;68030;51.980;5.646;2024-03-06T08:17:43;8.5;70.0
78696;SHT31;68030;51.980;5.646;2024-03-06T08:20:12;8.6;70.0
78696;SHT31;68030;51.980;5.646;2024-03-06T08:22:42;8.6;70.0
78696;SHT31;68030;51.980;5.646;2024-03-06T08:25:12;8.7;70.0
78696;SHT31;68030;51.980;5.646;2024-03-06T08:27:42;8.7;69.7
78696;SHT31;68030;51.980;5.646;2024-03-06T08:30:11;8.8;69.3
78696;SHT31;68030;51.980;5.646;2024-03-06T08:32:40;8.8;69.6
78696;SHT31;68030;51.980;5.646;2024-03-06T08:35:12;8.8;69.6
78696;SHT31;68030;51.980;5.646;2024-03-06T08:37:42;8.9;69.7
78696;SHT31;68030;51.980;5.646;2024-03-06T08:40:11;8.9;69.9
78696;SHT31;68030;51.980;5.646;2024-03-06T08:42:41;9.0;69.9
78696;SHT31;68030;51.980;5.646;2024-03-06T08:45:11;9.0;70.2
78696;SHT31;68030;51.980;5.646;2024-03-06T08:47:41;9.1;70.3
78696;SHT31;68030;51.980;5.646;2024-03-06T08:50:11;9.1;70.5
78696;SHT31;68030;51.980;5.646;2024-03-06T08:52:40;9.2;70.0
78696;SHT31;68030;51.980;5.646;2024-03-06T08:55:09;9.3;70.0
78696;SHT31;68030;51.980;5.646;2024-03-06T08:57:40;9.3;70.0
78696;SHT31;68030;51.980;5.646;2024-03-06T09:00:10;9.4;70.2
78696;SHT31;68030;51.980;5.646;2024-03-06T09:02:43;9.4;70.2
78696;SHT31;68030;51.980;5.646;2024-03-06T09:05:14;9.4;70.9
78696;SHT31;68030;51.980;5.646;2024-03-06T09:07:43;9.5;71.2
78696;SHT31;68030;51.980;5.646;2024-03-06T09:10:13;9.5;71.2
78696;SHT31;68030;51.980;5.646;2024-03-06T09:12:41;9.6;71.1
78696;SHT31;68030;51.980;5.646;2024-03-06T09:15:10;9.7;70.3
78696;SHT31;68030;51.980;5.646;2024-03-06T09:17:39;9.8;69.9
78696;SHT31;68030;51.980;5.646;2024-03-06T09:20:09;9.9;70.1
78696;SHT31;68030;51.980;5.646;2024-03-06T09:22:39;9.9;70.4
78696;SHT31;68030;51.980;5.646;2024-03-06T09:25:09;10.0;70.2
78696;SHT31;68030;51.980;5.646;2024-03-06T09:27:41;10.1;69.9
78696;SHT31;68030;51.980;5.646;2024-03-06T09:30:11;10.2;69.2
78696;SHT31;68030;51.980;5.646;2024-03-06T09:32:42;10.3;69.1
78696;SHT31;68030;51.980;5.646;2024-03-06T09:35:11;10.4;69.0
78696;SHT31;68030;51.980;5.646;2024-03-06T09:37:40;10.5;68.9
78696;SHT31;68030;51.980;5.646;2024-03-06T09:40:11;10.6;68.1
78696;SHT31;68030;51.980;5.646;2024-03-06T09:42:46;10.6;67.5
78696;SHT31;68030;51.980;5.646;2024-03-06T09:45:15;10.7;67.6
78696;SHT31;68030;51.980;5.646;2024-03-06T09:47:47;10.7;68.6
78696;SHT31;68030;51.980;5.646;2024-03-06T09:50:19;10.8;68.6
78696;SHT31;68030;51.980;5.646;2024-03-06T09:52:55;10.8;68.2
78696;SHT31;68030;51.980;5.646;2024-03-06T09:55:25;10.9;68.3
78696;SHT31;68030;51.980;5.646;2024-03-06T09:57:55;11.0;68.4
78696;SHT31;68030;51.980;5.646;2024-03-06T10:00:24;11.1;68.0
78696;SHT31;68030;51.980;5.646;2024-03-06T10:02:57;11.1;67.9
78696;SHT31;68030;51.980;5.646;2024-03-06T10:05:29;11.2;68.8
78696;SHT31;68030;51.980;5.646;2024-03-06T10:08:00;11.3;67.7
78696;SHT31;68030;51.980;5.646;2024-03-06T10:10:31;11.4;67.2
78696;SHT31;68030;51.980;5.646;2024-03-06T10:12:59;11.5;66.7
78696;SHT31;68030;51.980;5.646;2024-03-06T10:15:28;11.6;66.0
78696;SHT31;68030;51.980;5.646;2024-03-06T10:18:12;11.6;65.8
78696;SHT31;68030;51.980;5.646;2024-03-06T10:20:41;11.7;65.6
78696;SHT31;68030;51.980;5.646;2024-03-06T10:23:11;11.7;65.7
78696;SHT31;68030;51.980;5.646;2024-03-06T10:25:43;11.7;66.3
78696;SHT31;68030;51.980;5.646;2024-03-06T10:28:12;11.8;66.2
78696;SHT31;68030;51.980;5.646;2024-03-06T10:30:42;11.8;65.8
78696;SHT31;68030;51.980;5.646;2024-03-06T10:33:13;11.9;65.1
78696;SHT31;68030;51.980;5.646;2024-03-06T10:35:43;12.0;65.3
78696;SHT31;68030;51.980;5.646;2024-03-06T10:38:13;12.1;64.7
78696;SHT31;68030;51.980;5.646;2024-03-06T10:40:43;12.1;64.1
78696;SHT31;68030;51.980;5.646;2024-03-06T10:43:13;12.2;63.9
78696;SHT31;68030;51.980;5.646;2024-03-06T10:45:47;12.2;64.3
78696;SHT31;68030;51.980;5.646;2024-03-06T10:48:17;12.3;64.0
78696;SHT31;68030;51.980;5.646;2024-03-06T10:50:48;12.3;63.6
78696;SHT31;68030;51.980;5.646;2024-03-06T10:53:18;12.4;63.0
78696;SHT31;68030;51.980;5.646;2024-03-06T10:55:51;12.4;63.7
78696;SHT31;68030;51.980;5.646;2024-03-06T10:58:22;12.5;63.5
78696;SHT31;68030;51.980;5.646;2024-03-06T11:00:52;12.5;62.4
78696;SHT31;68030;51.980;5.646;2024-03-06T11:03:25;12.5;62.3
78696;SHT31;68030;51.980;5.646;2024-03-06T11:05:57;12.6;62.6
78696;SHT31;68030;51.980;5.646;2024-03-06T11:08:25;12.6;62.8
78696;SHT31;68030;51.980;5.646;2024-03-06T11:11:20;12.6;62.6
78696;SHT31;68030;51.980;5.646;2024-03-06T11:13:52;12.7;62.0
78696;SHT31;68030;51.980;5.646;2024-03-06T11:16:29;12.7;61.9
78696;SHT31;68030;51.980;5.646;2024-03-06T11:19:09;12.7;62.5
78696;SHT31;68030;51.980;5.646;2024-03-06T11:21:47;12.8;62.8
78696;SHT31;68030;51.980;5.646;2024-03-06T11:24:35;12.8;62.9
78696;SHT31;68030;51.980;5.646;2024-03-06T11:27:04;12.9;62.2
78696;SHT31;68030;51.980;5.646;2024-03-06T11:30:09;12.9;62.0
78696;SHT31;68030;51.980;5.646;2024-03-06T11:32:58;13.0;61.5
78696;SHT31;68030;51.980;5.646;2024-03-06T11:35:27;13.0;61.3
78696;SHT31;68030;51.980;5.646;2024-03-06T11:37:58;13.0;61.0
78696;SHT31;68030;51.980;5.646;2024-03-06T11:40:27;13.1;61.3
78696;SHT31;68030;51.980;5.646;2024-03-06T11:42:55;13.1;61.5
78696;SHT31;68030;51.980;5.646;2024-03-06T11:45:24;13.2;61.9
78696;SHT31;68030;51.980;5.646;2024-03-06T11:48:00;13.2;60.6
78696;SHT31;68030;51.980;5.646;2024-03-06T11:50:30;13.2;60.6
78696;SHT31;68030;51.980;5.646;2024-03-06T11:52:59;13.2;60.8
78696;SHT31;68030;51.980;5.646;2024-03-06T11:55:30;13.2;61.6
78696;SHT31;68030;51.980;5.646;2024-03-06T11:58:01;13.3;61.1
78696;SHT31;68030;51.980;5.646;2024-03-06T12:00:30;13.3;60.9
78696;SHT31;68030;51.980;5.646;2024-03-06T12:02:59;13.3;61.0
78696;SHT31;68030;51.980;5.646;2024-03-06T12:05:32;13.3;61.2
78696;SHT31;68030;51.980;5.646;2024-03-06T12:08:01;13.3;60.9
78696;SHT31;68030;51.980;5.646;2024-03-06T12:10:30;13.3;60.5
78696;SHT31;68030;51.980;5.646;2024-03-06T12:12:58;13.3;61.2
78696;SHT31;68030;51.980;5.646;2024-03-06T12:15:27;13.3;60.9
78696;SHT31;68030;51.980;5.646;2024-03-06T12:17:56;13.3;61.0
78696;SHT31;68030;51.980;5.646;2024-03-06T12:20:25;13.3;61.1
78696;SHT31;68030;51.980;5.646;2024-03-06T12:22:56;13.3;60.7
78696;SHT31;68030;51.980;5.646;2024-03-06T12:25:26;13.3;60.5
78696;SHT31;68030;51.980;5.646;2024-03-06T12:28:08;13.3;60.2
78696;SHT31;68030;51.980;5.646;2024-03-06T12:30:41;13.3;60.2
78696;SHT31;68030;51.980;5.646;2024-03-06T12:33:17;13.3;60.3
78696;SHT31;68030;51.980;5.646;2024-03-06T12:35:46;13.3;59.8
78696;SHT31;68030;51.980;5.646;2024-03-06T12:38:16;13.3;60.4
78696;SHT31;68030;51.980;5.646;2024-03-06T12:40:45;13.3;59.9
78696;SHT31;68030;51.980;5.646;2024-03-06T12:43:13;13.3;60.2
78696;SHT31;68030;51.980;5.646;2024-03-06T12:45:42;13.4;60.4
78696;SHT31;68030;51.980;5.646;2024-03-06T12:48:10;13.4;60.4
78696;SHT31;68030;51.980;5.646;2024-03-06T12:50:39;13.4;60.7
78696;SHT31;68030;51.980;5.646;2024-03-06T12:53:08;13.5;61.1
78696;SHT31;68030;51.980;5.646;2024-03-06T12:55:37;13.5;61.0
78696;SHT31;68030;51.980;5.646;2024-03-06T12:58:05;13.6;59.6
78696;SHT31;68030;51.980;5.646;2024-03-06T13:00:34;13.6;59.6
78696;SHT31;68030;51.980;5.646;2024-03-06T13:03:02;13.7;59.4
78696;SHT31;68030;51.980;5.646;2024-03-06T13:05:31;13.7;58.5
78696;SHT31;68030;51.980;5.646;2024-03-06T13:08:00;13.8;58.2
78696;SHT31;68030;51.980;5.646;2024-03-06T13:10:29;13.8;57.1
78696;SHT31;68030;51.980;5.646;2024-03-06T13:12:58;13.8;57.9
78696;SHT31;68030;51.980;5.646;2024-03-06T13:15:26;13.9;57.5
78696;SHT31;68030;51.980;5.646;2024-03-06T13:17:55;13.9;57.4
78696;SHT31;68030;51.980;5.646;2024-03-06T13:20:24;14.0;56.6
78696;SHT31;68030;51.980;5.646;2024-03-06T13:22:52;14.0;56.4
78696;SHT31;68030;51.980;5.646;2024-03-06T13:25:22;14.1;55.3
78696;SHT31;68030;51.980;5.646;2024-03-06T13:27:52;14.2;56.0
78696;SHT31;68030;51.980;5.646;2024-03-06T13:30:21;14.2;55.5
78696;SHT31;68030;51.980;5.646;2024-03-06T13:32:51;14.3;55.0
78696;SHT31;68030;51.980;5.646;2024-03-06T13:35:20;14.4;55.1
78696;SHT31;68030;51.980;5.646;2024-03-06T13:37:50;14.4;54.2
78696;SHT31;68030;51.980;5.646;2024-03-06T13:40:20;14.5;53.1
78696;SHT31;68030;51.980;5.646;2024-03-06T13:42:49;14.5;53.0
78696;SHT31;68030;51.980;5.646;2024-03-06T13:45:17;14.6;51.9
78696;SHT31;68030;51.980;5.646;2024-03-06T13:47:46;14.6;51.4
78696;SHT31;68030;51.980;5.646;2024-03-06T13:50:16;14.7;51.1
78696;SHT31;68030;51.980;5.646;2024-03-06T13:52:46;14.8;51.4
78696;SHT31;68030;51.980;5.646;2024-03-06T13:55:15;14.8;50.9
78696;SHT31;68030;51.980;5.646;2024-03-06T13:57:44;14.9;50.6
78696;SHT31;68030;51.980;5.646;2024-03-06T14:00:14;14.9;50.1
78696;SHT31;68030;51.980;5.646;2024-03-06T14:02:46;15.0;49.9
78696;SHT31;68030;51.980;5.646;2024-03-06T14:05:15;15.0;49.5
78696;SHT31;68030;51.980;5.646;2024-03-06T14:07:47;15.1;50.6
78696;SHT31;68030;51.980;5.646;2024-03-06T14:10:18;15.2;51.6
78696;SHT31;68030;51.980;5.646;2024-03-06T14:12:48;15.3;50.5
78696;SHT31;68030;51.980;5.646;2024-03-06T14:15:19;15.4;49.9
78696;SHT31;68030;51.980;5.646;2024-03-06T14:17:52;15.5;48.4
78696;SHT31;68030;51.980;5.646;2024-03-06T14:20:22;15.6;47.5
78696;SHT31;68030;51.980;5.646;2024-03-06T14:22:53;15.7;46.5
78696;SHT31;68030;51.980;5.646;2024-03-06T14:25:24;15.7;46.5
78696;SHT31;68030;51.980;5.646;2024-03-06T14:27:52;15.8;47.3
78696;SHT31;68030;51.980;5.646;2024-03-06T14:30:23;15.8;47.3
78696;SHT31;68030;51.980;5.646;2024-03-06T14:32:52;15.9;46.6
78696;SHT31;68030;51.980;5.646;2024-03-06T14:35:20;16.0;47.1
78696;SHT31;68030;51.980;5.646;2024-03-06T14:37:50;16.0;46.9
78696;SHT31;68030;51.980;5.646;2024-03-06T14:40:20;16.1;46.2
78696;SHT31;68030;51.980;5.646;2024-03-06T14:42:50;16.2;45.3
78696;SHT31;68030;51.980;5.646;2024-03-06T14:45:20;16.2;44.4
78696;SHT31;68030;51.980;5.646;2024-03-06T14:47:49;16.3;44.1
78696;SHT31;68030;51.980;5.646;2024-03-06T14:50:18;16.3;44.2
78696;SHT31;68030;51.980;5.646;2024-03-06T14:52:46;16.3;43.8
78696;SHT31;68030;51.980;5.646;2024-03-06T14:55:15;16.4;43.7
78696;SHT31;68030;51.980;5.646;2024-03-06T14:57:43;16.4;43.2
78696;SHT31;68030;51.980;5.646;2024-03-06T15:00:13;16.4;43.5
78696;SHT31;68030;51.980;5.646;2024-03-06T15:02:44;16.4;44.4
78696;SHT31;68030;51.980;5.646;2024-03-06T15:05:13;16.4;46.0
78696;SHT31;68030;51.980;5.646;2024-03-06T15:07:42;16.4;44.2
78696;SHT31;68030;51.980;5.646;2024-03-06T15:10:11;16.3;45.0
78696;SHT31;68030;51.980;5.646;2024-03-06T15:12:39;16.3;45.6
78696;SHT31;68030;51.980;5.646;2024-03-06T15:15:09;16.3;45.5
78696;SHT31;68030;51.980;5.646;2024-03-06T15:17:38;16.3;45.9
78696;SHT31;68030;51.980;5.646;2024-03-06T15:20:09;16.3;44.9
78696;SHT31;68030;51.980;5.646;2024-03-06T15:22:37;16.3;45.5
78696;SHT31;68030;51.980;5.646;2024-03-06T15:25:09;16.3;45.2
78696;SHT31;68030;51.980;5.646;2024-03-06T15:27:38;16.3;45.1
78696;SHT31;68030;51.980;5.646;2024-03-06T15:30:08;16.3;45.0
78696;SHT31;68030;51.980;5.646;2024-03-06T15:32:38;16.2;45.1
78696;SHT31;68030;51.980;5.646;2024-03-06T15:35:07;16.2;45.3
78696;SHT31;68030;51.980;5.646;2024-03-06T15:37:38;16.1;45.3
78696;SHT31;68030;51.980;5.646;2024-03-06T15:40:07;16.1;45.3
78696;SHT31;68030;51.980;5.646;2024-03-06T15:42:37;16.1;45.5
78696;SHT31;68030;51.980;5.646;2024-03-06T15:45:07;16.0;45.7
78696;SHT31;68030;51.980;5.646;2024-03-06T15:47:36;16.0;44.9
78696;SHT31;68030;51.980;5.646;2024-03-06T15:50:06;16.0;45.1
78696;SHT31;68030;51.980;5.646;2024-03-06T15:52:37;15.9;45.4
78696;SHT31;68030;51.980;5.646;2024-03-06T15:55:06;15.9;45.4
78696;SHT31;68030;51.980;5.646;2024-03-06T15:57:35;15.8;46.0
78696;SHT31;68030;51.980;5.646;2024-03-06T16:00:07;15.8;46.3
78696;SHT31;68030;51.980;5.646;2024-03-06T16:02:41;15.7;46.0
78696;SHT31;68030;51.980;5.646;2024-03-06T16:05:12;15.7;46.2
78696;SHT31;68030;51.980;5.646;2024-03-06T16:07:41;15.7;46.2
78696;SHT31;68030;51.980;5.646;2024-03-06T16:10:10;15.6;46.7
78696;SHT31;68030;51.980;5.646;2024-03-06T16:12:39;15.6;46.5
78696;SHT31;68030;51.980;5.646;2024-03-06T16:15:08;15.5;46.6
78696;SHT31;68030;51.980;5.646;2024-03-06T16:17:37;15.4;46.6
78696;SHT31;68030;51.980;5.646;2024-03-06T16:20:06;15.4;47.0
78696;SHT31;68030;51.980;5.646;2024-03-06T16:22:43;15.3;47.3
78696;SHT31;68030;51.980;5.646;2024-03-06T16:25:14;15.2;47.6
78696;SHT31;68030;51.980;5.646;2024-03-06T16:27:42;15.1;47.8